sensor_id;sensor_type;location;lat;lon;timestamp;P1;durP1;ratioP1;P2;durP2;ratioP2
60999;SDS011;46879;45.658;11.814;2022-07-29T00:01:22;3.60;;;2.80;;
60999;SDS011;46879;45.658;11.814;2022-07-29T00:06:22;5.00;;;2.30;;
60999;SDS011;46879;45.658;11.814;2022-07-29T00:11:23;5.35;;;2.50;;
60999;SDS011;46879;45.658;11.814;2022-07-29T00:16:23;7.88;;;2.75;;
60999;SDS011;46879;45.658;11.814;2022-07-29T00:21:24;3.60;;;2.78;;
60999;SDS011;46879;45.658;11.814;2022-07-29T00:26:24;7.10;;;2.63;;
60999;SDS011;46879;45.658;11.814;2022-07-29T00:31:27;4.25;;;2.50;;
60999;SDS011;46879;45.658;11.814;2022-07-29T00:36:28;4.43;;;2.38;;
60999;SDS011;46879;45.658;11.814;2022-07-29T00:41:29;4.50;;;2.35;;
60999;SDS011;46879;45.658;11.814;2022-07-29T00:46:29;3.20;;;2.63;;
60999;SDS011;46879;45.658;11.814;2022-07-29T00:51:30;2.90;;;1.98;;
60999;SDS011;46879;45.658;11.814;2022-07-29T00:56:32;3.90;;;2.30;;
60999;SDS011;46879;45.658;11.814;2022-07-29T01:01:33;2.78;;;2.28;;
60999;SDS011;46879;45.658;11.814;2022-07-29T01:06:33;9.98;;;2.30;;
60999;SDS011;46879;45.658;11.814;2022-07-29T01:11:34;2.00;;;1.83;;
60999;SDS011;46879;45.658;11.814;2022-07-29T01:16:41;3.22;;;2.40;;
60999;SDS011;46879;45.658;11.814;2022-07-29T01:33:02;2.28;;;1.90;;
60999;SDS011;46879;45.658;11.814;2022-07-29T01:38:12;2.55;;;2.13;;
60999;SDS011;46879;45.658;11.814;2022-07-29T01:43:18;2.20;;;1.92;;
60999;SDS011;46879;45.658;11.814;2022-07-29T01:48:36;2.10;;;1.90;;
60999;SDS011;46879;45.658;11.814;2022-07-29T01:58:56;2.95;;;2.10;;
60999;SDS011;46879;45.658;11.814;2022-07-29T02:03:59;3.67;;;1.80;;
60999;SDS011;46879;45.658;11.814;2022-07-29T02:09:02;2.70;;;1.75;;
60999;SDS011;46879;45.658;11.814;2022-07-29T02:14:04;2.97;;;1.85;;
60999;SDS011;46879;45.658;11.814;2022-07-29T02:19:07;2.15;;;1.88;;
60999;SDS011;46879;45.658;11.814;2022-07-29T02:24:09;4.93;;;1.70;;
60999;SDS011;46879;45.658;11.814;2022-07-29T02:29:12;2.65;;;1.98;;
60999;SDS011;46879;45.658;11.814;2022-07-29T02:34:14;5.13;;;2.10;;
60999;SDS011;46879;45.658;11.814;2022-07-29T02:39:17;3.17;;;1.80;;
60999;SDS011;46879;45.658;11.814;2022-07-29T02:44:19;3.25;;;1.80;;
60999;SDS011;46879;45.658;11.814;2022-07-29T03:16:38;1.63;;;1.52;;
60999;SDS011;46879;45.658;11.814;2022-07-29T03:21:43;2.13;;;1.55;;
60999;SDS011;46879;45.658;11.814;2022-07-29T03:26:44;1.30;;;1.20;;
60999;SDS011;46879;45.658;11.814;2022-07-29T03:31:44;1.70;;;1.50;;
60999;SDS011;46879;45.658;11.814;2022-07-29T03:36:46;2.45;;;1.75;;
60999;SDS011;46879;45.658;11.814;2022-07-29T03:41:48;1.67;;;1.40;;
60999;SDS011;46879;45.658;11.814;2022-07-29T03:46:52;1.60;;;1.50;;
60999;SDS011;46879;45.658;11.814;2022-07-29T03:51:55;1.50;;;1.40;;
60999;SDS011;46879;45.658;11.814;2022-07-29T03:56:56;1.63;;;1.52;;
60999;SDS011;46879;45.658;11.814;2022-07-29T04:02:02;1.60;;;1.38;;
60999;SDS011;46879;45.658;11.814;2022-07-29T04:07:04;1.40;;;1.30;;
60999;SDS011;46879;45.658;11.814;2022-07-29T04:12:05;1.35;;;1.25;;
60999;SDS011;46879;45.658;11.814;2022-07-29T04:17:05;1.83;;;1.33;;
60999;SDS011;46879;45.658;11.814;2022-07-29T04:22:06;3.42;;;1.50;;
60999;SDS011;46879;45.658;11.814;2022-07-29T04:27:07;4.45;;;1.60;;
60999;SDS011;46879;45.658;11.814;2022-07-29T04:32:07;1.38;;;1.27;;
60999;SDS011;46879;45.658;11.814;2022-07-29T04:37:08;2.55;;;1.23;;
60999;SDS011;46879;45.658;11.814;2022-07-29T04:42:08;1.42;;;1.15;;
60999;SDS011;46879;45.658;11.814;2022-07-29T04:47:09;3.00;;;1.20;;
60999;SDS011;46879;45.658;11.814;2022-07-29T04:52:10;1.58;;;1.48;;
60999;SDS011;46879;45.658;11.814;2022-07-29T04:57:10;1.30;;;1.20;;
60999;SDS011;46879;45.658;11.814;2022-07-29T05:02:11;4.88;;;1.40;;
60999;SDS011;46879;45.658;11.814;2022-07-29T05:07:11;2.10;;;1.50;;
60999;SDS011;46879;45.658;11.814;2022-07-29T05:12:12;4.80;;;1.58;;
60999;SDS011;46879;45.658;11.814;2022-07-29T05:17:12;2.80;;;1.40;;
60999;SDS011;46879;45.658;11.814;2022-07-29T05:22:13;8.20;;;1.35;;
60999;SDS011;46879;45.658;11.814;2022-07-29T05:27:14;1.90;;;1.63;;
60999;SDS011;46879;45.658;11.814;2022-07-29T05:32:14;4.10;;;1.85;;
60999;SDS011;46879;45.658;11.814;2022-07-29T05:37:15;3.78;;;1.83;;
60999;SDS011;46879;45.658;11.814;2022-07-29T05:42:16;6.38;;;2.20;;
60999;SDS011;46879;45.658;11.814;2022-07-29T05:47:16;2.78;;;2.10;;
60999;SDS011;46879;45.658;11.814;2022-07-29T05:52:17;3.10;;;2.05;;
60999;SDS011;46879;45.658;11.814;2022-07-29T05:57:22;10.75;;;2.45;;
60999;SDS011;46879;45.658;11.814;2022-07-29T06:02:23;11.95;;;2.60;;
60999;SDS011;46879;45.658;11.814;2022-07-29T06:07:24;12.93;;;2.78;;
60999;SDS011;46879;45.658;11.814;2022-07-29T06:12:25;7.32;;;2.47;;
60999;SDS011;46879;45.658;11.814;2022-07-29T06:17:26;7.97;;;2.42;;
60999;SDS011;46879;45.658;11.814;2022-07-29T06:22:26;3.55;;;2.47;;
60999;SDS011;46879;45.658;11.814;2022-07-29T06:27:27;4.28;;;2.70;;
60999;SDS011;46879;45.658;11.814;2022-07-29T06:32:28;3.60;;;2.50;;
60999;SDS011;46879;45.658;11.814;2022-07-29T06:37:28;7.55;;;2.92;;
60999;SDS011;46879;45.658;11.814;2022-07-29T06:42:29;7.50;;;2.42;;
60999;SDS011;46879;45.658;11.814;2022-07-29T06:47:29;5.63;;;2.60;;
60999;SDS011;46879;45.658;11.814;2022-07-29T06:52:30;4.43;;;2.72;;
60999;SDS011;46879;45.658;11.814;2022-07-29T06:57:30;5.95;;;2.50;;
60999;SDS011;46879;45.658;11.814;2022-07-29T07:02:31;2.47;;;2.13;;
60999;SDS011;46879;45.658;11.814;2022-07-29T07:07:32;4.47;;;2.50;;
60999;SDS011;46879;45.658;11.814;2022-07-29T07:12:32;4.63;;;2.40;;
60999;SDS011;46879;45.658;11.814;2022-07-29T07:17:33;3.80;;;2.50;;
60999;SDS011;46879;45.658;11.814;2022-07-29T07:22:33;3.20;;;2.33;;
60999;SDS011;46879;45.658;11.814;2022-07-29T07:27:34;3.85;;;2.38;;
60999;SDS011;46879;45.658;11.814;2022-07-29T07:32:35;3.13;;;2.30;;
60999;SDS011;46879;45.658;11.814;2022-07-29T07:37:36;3.83;;;2.20;;
60999;SDS011;46879;45.658;11.814;2022-07-29T07:42:38;5.72;;;2.55;;
60999;SDS011;46879;45.658;11.814;2022-07-29T07:47:40;4.88;;;2.30;;
60999;SDS011;46879;45.658;11.814;2022-07-29T07:52:48;4.43;;;2.60;;
60999;SDS011;46879;45.658;11.814;2022-07-29T07:57:55;4.28;;;2.70;;
60999;SDS011;46879;45.658;11.814;2022-07-29T08:02:55;4.00;;;2.80;;
60999;SDS011;46879;45.658;11.814;2022-07-29T08:07:56;3.40;;;2.38;;
60999;SDS011;46879;45.658;11.814;2022-07-29T08:12:56;5.05;;;2.75;;
60999;SDS011;46879;45.658;11.814;2022-07-29T08:17:57;6.43;;;2.65;;
60999;SDS011;46879;45.658;11.814;2022-07-29T08:22:58;7.45;;;2.65;;
60999;SDS011;46879;45.658;11.814;2022-07-29T08:27:59;5.55;;;2.65;;
60999;SDS011;46879;45.658;11.814;2022-07-29T08:32:59;5.38;;;2.55;;
60999;SDS011;46879;45.658;11.814;2022-07-29T08:38:00;6.13;;;2.60;;
60999;SDS011;46879;45.658;11.814;2022-07-29T08:43:06;5.25;;;2.58;;
60999;SDS011;46879;45.658;11.814;2022-07-29T08:48:08;3.30;;;2.22;;
60999;SDS011;46879;45.658;11.814;2022-07-29T08:53:12;4.22;;;2.90;;
60999;SDS011;46879;45.658;11.814;2022-07-29T08:58:16;8.43;;;2.70;;
60999;SDS011;46879;45.658;11.814;2022-07-29T09:03:20;4.03;;;2.95;;
60999;SDS011;46879;45.658;11.814;2022-07-29T09:08:24;4.60;;;2.83;;
60999;SDS011;46879;45.658;11.814;2022-07-29T09:13:25;3.70;;;2.72;;
60999;SDS011;46879;45.658;11.814;2022-07-29T09:18:32;4.53;;;2.83;;
60999;SDS011;46879;45.658;11.814;2022-07-29T09:23:35;3.53;;;3.03;;
60999;SDS011;46879;45.658;11.814;2022-07-29T09:28:35;5.97;;;2.88;;
60999;SDS011;46879;45.658;11.814;2022-07-29T09:33:41;5.85;;;3.10;;
60999;SDS011;46879;45.658;11.814;2022-07-29T09:38:42;3.53;;;3.00;;
60999;SDS011;46879;45.658;11.814;2022-07-29T09:43:56;3.42;;;2.85;;
60999;SDS011;46879;45.658;11.814;2022-07-29T09:49:05;4.70;;;2.72;;
60999;SDS011;46879;45.658;11.814;2022-07-29T09:54:26;4.70;;;3.10;;
60999;SDS011;46879;45.658;11.814;2022-07-29T09:59:28;3.75;;;2.60;;
60999;SDS011;46879;45.658;11.814;2022-07-29T10:04:38;4.47;;;2.63;;
60999;SDS011;46879;45.658;11.814;2022-07-29T10:09:49;4.25;;;2.63;;
60999;SDS011;46879;45.658;11.814;2022-07-29T10:14:54;3.35;;;2.83;;
60999;SDS011;46879;45.658;11.814;2022-07-29T10:19:55;4.38;;;2.75;;
60999;SDS011;46879;45.658;11.814;2022-07-29T10:24:56;3.35;;;2.35;;
60999;SDS011;46879;45.658;11.814;2022-07-29T10:29:57;4.60;;;2.38;;
60999;SDS011;46879;45.658;11.814;2022-07-29T10:46:27;4.03;;;2.72;;
60999;SDS011;46879;45.658;11.814;2022-07-29T10:51:50;4.72;;;2.50;;
60999;SDS011;46879;45.658;11.814;2022-07-29T10:57:12;5.60;;;2.55;;
60999;SDS011;46879;45.658;11.814;2022-07-29T11:13:12;4.80;;;2.78;;
60999;SDS011;46879;45.658;11.814;2022-07-29T11:18:13;5.03;;;2.70;;
60999;SDS011;46879;45.658;11.814;2022-07-29T11:28:29;3.22;;;2.88;;
60999;SDS011;46879;45.658;11.814;2022-07-29T11:33:30;4.28;;;2.90;;
60999;SDS011;46879;45.658;11.814;2022-07-29T11:38:32;3.58;;;2.72;;
60999;SDS011;46879;45.658;11.814;2022-07-29T11:43:45;4.50;;;2.90;;
60999;SDS011;46879;45.658;11.814;2022-07-29T11:48:57;5.32;;;2.78;;
60999;SDS011;46879;45.658;11.814;2022-07-29T11:53:58;3.78;;;2.90;;
60999;SDS011;46879;45.658;11.814;2022-07-29T11:59:03;4.35;;;2.95;;
60999;SDS011;46879;45.658;11.814;2022-07-29T12:04:06;7.53;;;3.30;;
60999;SDS011;46879;45.658;11.814;2022-07-29T12:09:07;4.07;;;2.90;;
60999;SDS011;46879;45.658;11.814;2022-07-29T12:14:08;8.10;;;3.20;;
60999;SDS011;46879;45.658;11.814;2022-07-29T12:19:09;8.75;;;2.97;;
60999;SDS011;46879;45.658;11.814;2022-07-29T12:24:09;6.43;;;3.38;;
60999;SDS011;46879;45.658;11.814;2022-07-29T12:29:15;8.93;;;3.47;;
60999;SDS011;46879;45.658;11.814;2022-07-29T12:34:17;7.07;;;3.23;;
60999;SDS011;46879;45.658;11.814;2022-07-29T12:39:18;5.90;;;3.05;;
60999;SDS011;46879;45.658;11.814;2022-07-29T12:44:19;5.60;;;3.20;;
60999;SDS011;46879;45.658;11.814;2022-07-29T12:49:22;4.70;;;3.03;;
60999;SDS011;46879;45.658;11.814;2022-07-29T12:54:23;9.45;;;3.05;;
60999;SDS011;46879;45.658;11.814;2022-07-29T12:59:23;3.92;;;2.80;;
60999;SDS011;46879;45.658;11.814;2022-07-29T13:04:25;5.57;;;3.10;;
60999;SDS011;46879;45.658;11.814;2022-07-29T13:09:38;5.50;;;3.00;;
60999;SDS011;46879;45.658;11.814;2022-07-29T13:14:45;7.35;;;2.90;;
60999;SDS011;46879;45.658;11.814;2022-07-29T13:19:51;4.20;;;3.00;;
60999;SDS011;46879;45.658;11.814;2022-07-29T13:25:06;6.30;;;2.80;;
60999;SDS011;46879;45.658;11.814;2022-07-29T13:30:08;5.72;;;2.70;;
60999;SDS011;46879;45.658;11.814;2022-07-29T13:35:09;5.30;;;3.13;;
60999;SDS011;46879;45.658;11.814;2022-07-29T13:40:10;7.85;;;3.58;;
60999;SDS011;46879;45.658;11.814;2022-07-29T13:45:12;9.98;;;3.53;;
60999;SDS011;46879;45.658;11.814;2022-07-29T13:50:12;10.00;;;3.50;;
60999;SDS011;46879;45.658;11.814;2022-07-29T13:55:13;12.93;;;3.58;;
60999;SDS011;46879;45.658;11.814;2022-07-29T14:00:14;7.70;;;3.40;;
60999;SDS011;46879;45.658;11.814;2022-07-29T14:05:15;11.30;;;2.90;;
60999;SDS011;46879;45.658;11.814;2022-07-29T14:10:16;8.40;;;3.15;;
60999;SDS011;46879;45.658;11.814;2022-07-29T14:15:17;10.52;;;3.50;;
60999;SDS011;46879;45.658;11.814;2022-07-29T14:20:18;4.85;;;3.20;;
60999;SDS011;46879;45.658;11.814;2022-07-29T14:25:19;5.25;;;3.53;;
60999;SDS011;46879;45.658;11.814;2022-07-29T14:30:20;8.90;;;3.90;;
60999;SDS011;46879;45.658;11.814;2022-07-29T14:35:20;10.02;;;3.80;;
60999;SDS011;46879;45.658;11.814;2022-07-29T14:40:21;5.15;;;3.10;;
60999;SDS011;46879;45.658;11.814;2022-07-29T14:45:21;10.13;;;3.88;;
60999;SDS011;46879;45.658;11.814;2022-07-29T14:50:22;20.77;;;3.72;;
60999;SDS011;46879;45.658;11.814;2022-07-29T14:55:23;12.02;;;3.72;;
60999;SDS011;46879;45.658;11.814;2022-07-29T15:00:24;18.73;;;4.32;;
60999;SDS011;46879;45.658;11.814;2022-07-29T15:05:26;20.95;;;4.10;;
60999;SDS011;46879;45.658;11.814;2022-07-29T15:10:27;13.98;;;4.15;;
60999;SDS011;46879;45.658;11.814;2022-07-29T15:15:28;14.45;;;4.20;;
60999;SDS011;46879;45.658;11.814;2022-07-29T15:20:29;12.43;;;3.85;;
60999;SDS011;46879;45.658;11.814;2022-07-29T15:25:30;11.05;;;3.72;;
60999;SDS011;46879;45.658;11.814;2022-07-29T15:30:33;10.77;;;3.65;;
60999;SDS011;46879;45.658;11.814;2022-07-29T15:35:39;11.90;;;3.60;;
60999;SDS011;46879;45.658;11.814;2022-07-29T15:40:40;14.35;;;4.10;;
60999;SDS011;46879;45.658;11.814;2022-07-29T15:45:42;10.90;;;3.95;;
60999;SDS011;46879;45.658;11.814;2022-07-29T15:51:03;20.83;;;4.75;;
60999;SDS011;46879;45.658;11.814;2022-07-29T15:56:04;13.75;;;3.53;;
60999;SDS011;46879;45.658;11.814;2022-07-29T16:01:04;8.10;;;2.97;;
60999;SDS011;46879;45.658;11.814;2022-07-29T16:06:05;10.18;;;3.28;;
60999;SDS011;46879;45.658;11.814;2022-07-29T16:11:06;4.93;;;3.10;;
60999;SDS011;46879;45.658;11.814;2022-07-29T16:16:06;14.77;;;3.83;;
60999;SDS011;46879;45.658;11.814;2022-07-29T16:21:07;7.93;;;2.95;;
60999;SDS011;46879;45.658;11.814;2022-07-29T16:26:08;6.68;;;3.20;;
60999;SDS011;46879;45.658;11.814;2022-07-29T16:31:08;6.63;;;3.10;;
60999;SDS011;46879;45.658;11.814;2022-07-29T16:36:09;8.48;;;3.40;;
60999;SDS011;46879;45.658;11.814;2022-07-29T16:41:10;6.90;;;3.05;;
60999;SDS011;46879;45.658;11.814;2022-07-29T16:46:10;4.60;;;3.05;;
60999;SDS011;46879;45.658;11.814;2022-07-29T16:51:11;5.45;;;3.08;;
60999;SDS011;46879;45.658;11.814;2022-07-29T16:56:12;5.80;;;2.95;;
60999;SDS011;46879;45.658;11.814;2022-07-29T17:01:12;4.75;;;2.75;;
60999;SDS011;46879;45.658;11.814;2022-07-29T17:06:13;4.13;;;2.97;;
60999;SDS011;46879;45.658;11.814;2022-07-29T17:11:13;4.93;;;3.30;;
60999;SDS011;46879;45.658;11.814;2022-07-29T17:16:14;4.78;;;3.10;;
60999;SDS011;46879;45.658;11.814;2022-07-29T17:21:15;5.35;;;3.10;;
60999;SDS011;46879;45.658;11.814;2022-07-29T17:26:16;6.20;;;3.20;;
60999;SDS011;46879;45.658;11.814;2022-07-29T17:31:17;4.82;;;3.25;;
60999;SDS011;46879;45.658;11.814;2022-07-29T17:36:18;6.43;;;2.72;;
60999;SDS011;46879;45.658;11.814;2022-07-29T17:41:24;6.38;;;2.97;;
60999;SDS011;46879;45.658;11.814;2022-07-29T17:46:25;7.40;;;2.92;;
60999;SDS011;46879;45.658;11.814;2022-07-29T17:51:27;11.52;;;3.15;;
60999;SDS011;46879;45.658;11.814;2022-07-29T17:56:27;7.18;;;3.55;;
60999;SDS011;46879;45.658;11.814;2022-07-29T18:01:28;8.75;;;3.28;;
60999;SDS011;46879;45.658;11.814;2022-07-29T18:06:28;8.20;;;3.28;;
60999;SDS011;46879;45.658;11.814;2022-07-29T18:11:29;7.20;;;2.85;;
60999;SDS011;46879;45.658;11.814;2022-07-29T18:16:31;4.47;;;2.90;;
60999;SDS011;46879;45.658;11.814;2022-07-29T18:21:31;7.13;;;2.83;;
60999;SDS011;46879;45.658;11.814;2022-07-29T18:26:32;5.75;;;2.47;;
60999;SDS011;46879;45.658;11.814;2022-07-29T18:31:33;5.88;;;2.65;;
60999;SDS011;46879;45.658;11.814;2022-07-29T18:36:33;4.88;;;1.90;;
60999;SDS011;46879;45.658;11.814;2022-07-29T18:41:34;5.55;;;2.25;;
60999;SDS011;46879;45.658;11.814;2022-07-29T18:46:34;3.65;;;1.67;;
60999;SDS011;46879;45.658;11.814;2022-07-29T18:51:35;3.10;;;1.52;;
60999;SDS011;46879;45.658;11.814;2022-07-29T18:56:35;2.90;;;1.35;;
60999;SDS011;46879;45.658;11.814;2022-07-29T19:01:36;3.42;;;1.52;;
60999;SDS011;46879;45.658;11.814;2022-07-29T19:06:37;3.60;;;1.92;;
60999;SDS011;46879;45.658;11.814;2022-07-29T19:11:39;3.30;;;1.77;;
60999;SDS011;46879;45.658;11.814;2022-07-29T19:16:40;3.30;;;1.80;;
60999;SDS011;46879;45.658;11.814;2022-07-29T19:21:40;4.72;;;1.80;;
60999;SDS011;46879;45.658;11.814;2022-07-29T19:26:41;2.33;;;1.55;;
60999;SDS011;46879;45.658;11.814;2022-07-29T19:31:48;4.28;;;2.08;;
60999;SDS011;46879;45.658;11.814;2022-07-29T19:36:48;7.15;;;2.00;;
60999;SDS011;46879;45.658;11.814;2022-07-29T19:41:49;4.32;;;1.58;;
60999;SDS011;46879;45.658;11.814;2022-07-29T19:46:49;2.85;;;1.90;;
60999;SDS011;46879;45.658;11.814;2022-07-29T19:51:50;1.88;;;1.67;;
60999;SDS011;46879;45.658;11.814;2022-07-29T19:56:50;3.50;;;1.88;;
60999;SDS011;46879;45.658;11.814;2022-07-29T20:01:51;3.10;;;1.70;;
60999;SDS011;46879;45.658;11.814;2022-07-29T20:06:51;5.47;;;2.00;;
60999;SDS011;46879;45.658;11.814;2022-07-29T20:11:55;5.72;;;2.05;;
60999;SDS011;46879;45.658;11.814;2022-07-29T20:16:56;2.60;;;2.05;;
60999;SDS011;46879;45.658;11.814;2022-07-29T20:21:56;3.45;;;2.05;;
60999;SDS011;46879;45.658;11.814;2022-07-29T20:26:57;2.97;;;1.77;;
60999;SDS011;46879;45.658;11.814;2022-07-29T20:31:57;4.43;;;2.67;;
60999;SDS011;46879;45.658;11.814;2022-07-29T20:36:58;5.57;;;2.83;;
60999;SDS011;46879;45.658;11.814;2022-07-29T20:42:00;3.03;;;2.40;;
60999;SDS011;46879;45.658;11.814;2022-07-29T20:47:01;5.30;;;2.30;;
60999;SDS011;46879;45.658;11.814;2022-07-29T20:52:02;7.68;;;2.28;;
60999;SDS011;46879;45.658;11.814;2022-07-29T20:57:02;6.00;;;2.28;;
60999;SDS011;46879;45.658;11.814;2022-07-29T21:02:03;10.38;;;1.95;;
60999;SDS011;46879;45.658;11.814;2022-07-29T21:07:04;8.98;;;2.20;;
60999;SDS011;46879;45.658;11.814;2022-07-29T21:12:05;13.10;;;2.05;;
60999;SDS011;46879;45.658;11.814;2022-07-29T21:17:06;1.70;;;1.60;;
60999;SDS011;46879;45.658;11.814;2022-07-29T21:22:07;5.57;;;1.70;;
60999;SDS011;46879;45.658;11.814;2022-07-29T21:27:08;2.47;;;1.38;;
60999;SDS011;46879;45.658;11.814;2022-07-29T21:32:27;5.82;;;2.00;;
60999;SDS011;46879;45.658;11.814;2022-07-29T21:37:28;5.70;;;1.60;;
60999;SDS011;46879;45.658;11.814;2022-07-29T21:42:28;2.17;;;1.42;;
60999;SDS011;46879;45.658;11.814;2022-07-29T21:47:29;5.25;;;1.40;;
60999;SDS011;46879;45.658;11.814;2022-07-29T21:52:29;4.75;;;1.30;;
60999;SDS011;46879;45.658;11.814;2022-07-29T21:57:30;1.33;;;1.20;;
60999;SDS011;46879;45.658;11.814;2022-07-29T22:02:31;6.80;;;1.60;;
60999;SDS011;46879;45.658;11.814;2022-07-29T22:07:31;2.65;;;1.48;;
60999;SDS011;46879;45.658;11.814;2022-07-29T22:12:32;2.42;;;1.20;;
60999;SDS011;46879;45.658;11.814;2022-07-29T22:17:33;2.55;;;1.52;;
60999;SDS011;46879;45.658;11.814;2022-07-29T22:22:33;3.97;;;1.33;;
60999;SDS011;46879;45.658;11.814;2022-07-29T22:27:34;8.95;;;1.60;;
60999;SDS011;46879;45.658;11.814;2022-07-29T22:32:35;2.72;;;1.52;;
60999;SDS011;46879;45.658;11.814;2022-07-29T22:37:36;4.60;;;1.60;;
60999;SDS011;46879;45.658;11.814;2022-07-29T22:42:37;4.22;;;1.88;;
60999;SDS011;46879;45.658;11.814;2022-07-29T22:47:37;9.82;;;1.90;;
60999;SDS011;46879;45.658;11.814;2022-07-29T22:52:38;5.68;;;1.80;;
60999;SDS011;46879;45.658;11.814;2022-07-29T22:57:38;2.90;;;1.67;;
60999;SDS011;46879;45.658;11.814;2022-07-29T23:02:39;6.30;;;1.88;;
60999;SDS011;46879;45.658;11.814;2022-07-29T23:07:40;2.33;;;1.80;;
60999;SDS011;46879;45.658;11.814;2022-07-29T23:12:41;3.60;;;1.90;;
60999;SDS011;46879;45.658;11.814;2022-07-29T23:17:41;3.95;;;2.15;;
60999;SDS011;46879;45.658;11.814;2022-07-29T23:22:42;3.67;;;1.92;;
60999;SDS011;46879;45.658;11.814;2022-07-29T23:27:43;2.38;;;1.73;;
60999;SDS011;46879;45.658;11.814;2022-07-29T23:32:43;2.78;;;2.05;;
60999;SDS011;46879;45.658;11.814;2022-07-29T23:37:44;5.35;;;2.08;;
60999;SDS011;46879;45.658;11.814;2022-07-29T23:42:44;2.30;;;1.45;;
60999;SDS011;46879;45.658;11.814;2022-07-29T23:47:45;2.53;;;1.60;;
60999;SDS011;46879;45.658;11.814;2022-07-29T23:52:46;2.28;;;1.52;;
60999;SDS011;46879;45.658;11.814;2022-07-29T23:57:46;5.97;;;1.60;;
